Terminal Aerodrome Forecast
Issued by NWS

Home | Current Version | Previous Version | Graphics & Text | Print | Product List | Glossary On
Versions: 1 2 3 4 5 6 7 8 9 10 11 12 13 14 15 16 17 18 19
000
FTUS42 KMHX 161924 AAA
TAFPGV
TAF AMD
KPGV 161924Z 1619/1718 02010KT P6SM VCSH OVC009
     FM162300 03008KT P6SM VCSH OVC050
     FM170200 02005KT P6SM FEW250
     FM170800 02010KT P6SM SKC
      AMD LTD TO CLD VIS AND WIND=

USA.gov is the U.S. government's official web portal to all federal, state and local government web resources and services.